sensor_id;sensor_type;location;lat;lon;timestamp;pressure;altitude;pressure_sealevel;temperature;humidity
49835;BME280;35729;52.090;13.162;2024-01-30T00:01:25;102420.34;;;3.18;78.39
49835;BME280;35729;52.090;13.162;2024-01-30T00:03:56;102420.25;;;3.15;78.75
49835;BME280;35729;52.090;13.162;2024-01-30T00:06:24;102418.41;;;3.12;78.77
49835;BME280;35729;52.090;13.162;2024-01-30T00:08:53;102411.34;;;3.08;78.82
49835;BME280;35729;52.090;13.162;2024-01-30T00:11:22;102418.22;;;3.06;78.98
49835;BME280;35729;52.090;13.162;2024-01-30T00:13:51;102419.81;;;3.02;78.89
49835;BME280;35729;52.090;13.162;2024-01-30T00:16:20;102411.03;;;2.99;79.02
49835;BME280;35729;52.090;13.162;2024-01-30T00:18:49;102415.22;;;2.95;79.27
49835;BME280;35729;52.090;13.162;2024-01-30T00:21:21;102416.81;;;2.91;79.30
49835;BME280;35729;52.090;13.162;2024-01-30T00:23:49;102418.41;;;2.88;79.43
49835;BME280;35729;52.090;13.162;2024-01-30T00:26:18;102408.75;;;2.84;79.54
49835;BME280;35729;52.090;13.162;2024-01-30T00:28:46;102409.56;;;2.83;79.84
49835;BME280;35729;52.090;13.162;2024-01-30T00:31:15;102404.28;;;2.80;79.67
49835;BME280;35729;52.090;13.162;2024-01-30T00:33:43;102407.75;;;2.80;79.58
49835;BME280;35729;52.090;13.162;2024-01-30T00:36:12;102399.94;;;2.79;79.86
49835;BME280;35729;52.090;13.162;2024-01-30T00:38:43;102394.69;;;2.77;79.54
49835;BME280;35729;52.090;13.162;2024-01-30T00:41:11;102393.78;;;2.76;79.57
49835;BME280;35729;52.090;13.162;2024-01-30T00:43:40;102392.03;;;2.75;79.82
49835;BME280;35729;52.090;13.162;2024-01-30T00:46:08;102391.19;;;2.76;80.01
49835;BME280;35729;52.090;13.162;2024-01-30T00:48:37;102390.38;;;2.77;80.12
49835;BME280;35729;52.090;13.162;2024-01-30T00:51:05;102389.50;;;2.77;80.02
49835;BME280;35729;52.090;13.162;2024-01-30T00:53:34;102392.97;;;2.77;79.59
49835;BME280;35729;52.090;13.162;2024-01-30T00:56:05;102387.84;;;2.79;79.73
49835;BME280;35729;52.090;13.162;2024-01-30T00:58:34;102391.38;;;2.81;79.88
49835;BME280;35729;52.090;13.162;2024-01-30T01:01:03;102391.38;;;2.81;80.10
49835;BME280;35729;52.090;13.162;2024-01-30T01:03:39;102397.44;;;2.82;79.92
49835;BME280;35729;52.090;13.162;2024-01-30T01:06:09;102393.97;;;2.81;80.15
49835;BME280;35729;52.090;13.162;2024-01-30T01:08:37;102394.03;;;2.83;80.21
49835;BME280;35729;52.090;13.162;2024-01-30T01:11:08;102403.56;;;2.84;80.03
49835;BME280;35729;52.090;13.162;2024-01-30T01:13:37;102405.34;;;2.85;80.47
49835;BME280;35729;52.090;13.162;2024-01-30T01:16:06;102397.44;;;2.82;80.48
49835;BME280;35729;52.090;13.162;2024-01-30T01:18:34;102405.41;;;2.86;80.06
49835;BME280;35729;52.090;13.162;2024-01-30T01:21:03;102405.44;;;2.88;80.47
49835;BME280;35729;52.090;13.162;2024-01-30T01:23:31;102401.16;;;2.88;80.24
49835;BME280;35729;52.090;13.162;2024-01-30T01:26:00;102399.50;;;2.90;80.45
49835;BME280;35729;52.090;13.162;2024-01-30T01:28:31;102396.06;;;2.91;79.63
49835;BME280;35729;52.090;13.162;2024-01-30T01:30:59;102398.72;;;2.93;80.29
49835;BME280;35729;52.090;13.162;2024-01-30T01:33:30;102399.66;;;2.95;80.27
49835;BME280;35729;52.090;13.162;2024-01-30T01:36:01;102398.84;;;2.96;80.31
49835;BME280;35729;52.090;13.162;2024-01-30T01:38:30;102397.16;;;2.98;79.67
49835;BME280;35729;52.090;13.162;2024-01-30T01:40:58;102397.25;;;3.00;80.07
49835;BME280;35729;52.090;13.162;2024-01-30T01:43:27;102390.38;;;3.02;80.52
49835;BME280;35729;52.090;13.162;2024-01-30T01:45:58;102391.28;;;3.02;80.13
49835;BME280;35729;52.090;13.162;2024-01-30T01:48:27;102398.25;;;3.03;80.35
49835;BME280;35729;52.090;13.162;2024-01-30T01:50:55;102405.16;;;3.04;80.36
49835;BME280;35729;52.090;13.162;2024-01-30T01:53:24;102399.97;;;3.04;80.10
49835;BME280;35729;52.090;13.162;2024-01-30T01:55:54;102392.22;;;3.04;80.07
49835;BME280;35729;52.090;13.162;2024-01-30T01:58:26;102394.81;;;3.04;79.85
49835;BME280;35729;52.090;13.162;2024-01-30T02:00:59;102395.69;;;3.05;79.60
49835;BME280;35729;52.090;13.162;2024-01-30T02:03:27;102395.75;;;3.06;79.98
49835;BME280;35729;52.090;13.162;2024-01-30T02:05:56;102394.94;;;3.07;79.72
49835;BME280;35729;52.090;13.162;2024-01-30T02:08:26;102388.84;;;3.07;80.08
49835;BME280;35729;52.090;13.162;2024-01-30T02:11:08;102397.56;;;3.09;79.72
49835;BME280;35729;52.090;13.162;2024-01-30T02:13:38;102397.56;;;3.09;79.89
49835;BME280;35729;52.090;13.162;2024-01-30T02:16:09;102391.50;;;3.08;79.65
49835;BME280;35729;52.090;13.162;2024-01-30T02:18:38;102385.47;;;3.09;79.92
49835;BME280;35729;52.090;13.162;2024-01-30T02:21:13;102388.06;;;3.09;79.86
49835;BME280;35729;52.090;13.162;2024-01-30T02:23:43;102389.00;;;3.12;80.19
49835;BME280;35729;52.090;13.162;2024-01-30T02:26:11;102389.84;;;3.10;80.09
49835;BME280;35729;52.090;13.162;2024-01-30T02:28:40;102388.06;;;3.09;80.15
49835;BME280;35729;52.090;13.162;2024-01-30T02:31:08;102393.25;;;3.09;80.35
49835;BME280;35729;52.090;13.162;2024-01-30T02:33:37;102383.72;;;3.08;80.22
49835;BME280;35729;52.090;13.162;2024-01-30T02:36:06;102390.59;;;3.08;80.28
49835;BME280;35729;52.090;13.162;2024-01-30T02:38:37;102388.84;;;3.07;80.41
49835;BME280;35729;52.090;13.162;2024-01-30T02:41:05;102388.78;;;3.05;80.21
49835;BME280;35729;52.090;13.162;2024-01-30T02:43:34;102393.09;;;3.05;80.41
49835;BME280;35729;52.090;13.162;2024-01-30T02:46:02;102391.34;;;3.04;80.62
49835;BME280;35729;52.090;13.162;2024-01-30T02:48:31;102386.09;;;3.02;80.38
49835;BME280;35729;52.090;13.162;2024-01-30T02:50:59;102382.56;;;3.00;80.21
49835;BME280;35729;52.090;13.162;2024-01-30T02:53:25;102389.47;;;3.00;80.54
49835;BME280;35729;52.090;13.162;2024-01-30T02:55:56;102385.97;;;2.99;80.62
49835;BME280;35729;52.090;13.162;2024-01-30T02:58:25;102386.78;;;2.98;81.03
49835;BME280;35729;52.090;13.162;2024-01-30T03:00:53;102386.75;;;2.97;80.99
49835;BME280;35729;52.090;13.162;2024-01-30T03:03:21;102388.44;;;2.95;81.16
49835;BME280;35729;52.090;13.162;2024-01-30T03:05:50;102384.94;;;2.94;80.93
49835;BME280;35729;52.090;13.162;2024-01-30T03:08:18;102385.75;;;2.93;81.14
49835;BME280;35729;52.090;13.162;2024-01-30T03:10:47;102387.44;;;2.91;81.13
49835;BME280;35729;52.090;13.162;2024-01-30T03:13:18;102383.88;;;2.89;80.96
49835;BME280;35729;52.090;13.162;2024-01-30T03:15:46;102377.00;;;2.89;81.10
49835;BME280;35729;52.090;13.162;2024-01-30T03:18:15;102381.25;;;2.87;81.34
49835;BME280;35729;52.090;13.162;2024-01-30T03:20:43;102385.53;;;2.87;80.68
49835;BME280;35729;52.090;13.162;2024-01-30T03:23:12;102379.44;;;2.85;80.52
49835;BME280;35729;52.090;13.162;2024-01-30T03:25:40;102383.72;;;2.84;80.79
49835;BME280;35729;52.090;13.162;2024-01-30T03:28:09;102375.88;;;2.83;80.83
49835;BME280;35729;52.090;13.162;2024-01-30T03:30:40;102366.28;;;2.80;80.99
49835;BME280;35729;52.090;13.162;2024-01-30T03:33:08;102371.41;;;2.79;80.76
49835;BME280;35729;52.090;13.162;2024-01-30T03:35:37;102374.84;;;2.77;81.01
49835;BME280;35729;52.090;13.162;2024-01-30T03:38:05;102371.28;;;2.75;80.91
49835;BME280;35729;52.090;13.162;2024-01-30T03:40:34;102373.88;;;2.75;81.16
49835;BME280;35729;52.090;13.162;2024-01-30T03:43:02;102366.88;;;2.73;80.45
49835;BME280;35729;52.090;13.162;2024-01-30T03:45:31;102372.97;;;2.73;80.82
49835;BME280;35729;52.090;13.162;2024-01-30T03:48:02;102370.38;;;2.73;80.83
49835;BME280;35729;52.090;13.162;2024-01-30T03:50:31;102366.00;;;2.72;80.44
49835;BME280;35729;52.090;13.162;2024-01-30T03:52:59;102362.53;;;2.72;80.93
49835;BME280;35729;52.090;13.162;2024-01-30T03:55:28;102365.97;;;2.71;80.89
49835;BME280;35729;52.090;13.162;2024-01-30T03:57:56;102356.41;;;2.70;81.04
49835;BME280;35729;52.090;13.162;2024-01-30T04:00:25;102364.19;;;2.70;81.00
49835;BME280;35729;52.090;13.162;2024-01-30T04:02:53;102364.13;;;2.68;81.37
49835;BME280;35729;52.090;13.162;2024-01-30T04:05:24;102356.31;;;2.67;81.05
49835;BME280;35729;52.090;13.162;2024-01-30T04:07:53;102358.81;;;2.65;81.41
49835;BME280;35729;52.090;13.162;2024-01-30T04:10:21;102360.53;;;2.65;81.07
49835;BME280;35729;52.090;13.162;2024-01-30T04:12:50;102361.38;;;2.64;81.46
49835;BME280;35729;52.090;13.162;2024-01-30T04:15:19;102353.53;;;2.62;81.45
49835;BME280;35729;52.090;13.162;2024-01-30T04:17:48;102358.69;;;2.60;81.34
49835;BME280;35729;52.090;13.162;2024-01-30T04:20:25;102355.13;;;2.58;81.25
49835;BME280;35729;52.090;13.162;2024-01-30T04:22:54;102357.72;;;2.58;81.16
49835;BME280;35729;52.090;13.162;2024-01-30T04:25:22;102356.84;;;2.58;81.69
49835;BME280;35729;52.090;13.162;2024-01-30T04:27:51;102356.00;;;2.59;81.34
49835;BME280;35729;52.090;13.162;2024-01-30T04:30:19;102353.41;;;2.59;81.67
49835;BME280;35729;52.090;13.162;2024-01-30T04:32:48;102358.59;;;2.59;81.47
49835;BME280;35729;52.090;13.162;2024-01-30T04:35:16;102358.59;;;2.59;81.43
49835;BME280;35729;52.090;13.162;2024-01-30T04:37:48;102353.41;;;2.59;81.37
49835;BME280;35729;52.090;13.162;2024-01-30T04:40:17;102355.94;;;2.57;81.25
49835;BME280;35729;52.090;13.162;2024-01-30T04:42:45;102341.31;;;2.58;81.39
49835;BME280;35729;52.090;13.162;2024-01-30T04:45:14;102352.50;;;2.57;81.20
49835;BME280;35729;52.090;13.162;2024-01-30T04:47:43;102343.91;;;2.58;81.37
49835;BME280;35729;52.090;13.162;2024-01-30T04:50:11;102346.50;;;2.58;81.47
49835;BME280;35729;52.090;13.162;2024-01-30T04:52:40;102346.50;;;2.58;81.52
49835;BME280;35729;52.090;13.162;2024-01-30T04:55:11;102346.50;;;2.58;80.73
49835;BME280;35729;52.090;13.162;2024-01-30T04:57:39;102336.13;;;2.58;81.32
49835;BME280;35729;52.090;13.162;2024-01-30T05:00:09;102348.19;;;2.57;81.47
49835;BME280;35729;52.090;13.162;2024-01-30T05:02:38;102346.50;;;2.58;81.60
49835;BME280;35729;52.090;13.162;2024-01-30T05:05:06;102346.50;;;2.58;80.49
49835;BME280;35729;52.090;13.162;2024-01-30T05:07:35;102345.59;;;2.57;80.96
49835;BME280;35729;52.090;13.162;2024-01-30T05:10:04;102342.94;;;2.56;80.86
49835;BME280;35729;52.090;13.162;2024-01-30T05:12:36;102341.22;;;2.56;80.39
49835;BME280;35729;52.090;13.162;2024-01-30T05:15:05;102338.59;;;2.55;81.26
49835;BME280;35729;52.090;13.162;2024-01-30T05:17:34;102351.53;;;2.55;80.89
49835;BME280;35729;52.090;13.162;2024-01-30T05:20:02;102343.72;;;2.53;81.00
49835;BME280;35729;52.090;13.162;2024-01-30T05:22:31;102342.84;;;2.53;81.04
49835;BME280;35729;52.090;13.162;2024-01-30T05:25:00;102349.78;;;2.54;80.94
49835;BME280;35729;52.090;13.162;2024-01-30T05:27:29;102356.69;;;2.53;81.12
49835;BME280;35729;52.090;13.162;2024-01-30T05:30:08;102358.44;;;2.54;80.70
49835;BME280;35729;52.090;13.162;2024-01-30T05:32:36;102348.91;;;2.53;80.80
49835;BME280;35729;52.090;13.162;2024-01-30T05:35:05;102353.25;;;2.54;81.28
49835;BME280;35729;52.090;13.162;2024-01-30T05:37:33;102354.09;;;2.53;81.47
49835;BME280;35729;52.090;13.162;2024-01-30T05:40:02;102352.34;;;2.54;81.58
49835;BME280;35729;52.090;13.162;2024-01-30T05:42:31;102352.34;;;2.54;81.40
49835;BME280;35729;52.090;13.162;2024-01-30T05:44:59;102356.72;;;2.55;81.10
49835;BME280;35729;52.090;13.162;2024-01-30T05:47:30;102355.84;;;2.54;81.03
49835;BME280;35729;52.090;13.162;2024-01-30T05:49:59;102351.50;;;2.53;81.14
49835;BME280;35729;52.090;13.162;2024-01-30T05:52:28;102353.22;;;2.53;81.15
49835;BME280;35729;52.090;13.162;2024-01-30T05:54:57;102343.59;;;2.50;81.43
49835;BME280;35729;52.090;13.162;2024-01-30T05:57:25;102353.06;;;2.50;81.37
49835;BME280;35729;52.090;13.162;2024-01-30T05:59:54;102347.84;;;2.48;81.52
49835;BME280;35729;52.090;13.162;2024-01-30T06:02:22;102343.47;;;2.47;81.54
49835;BME280;35729;52.090;13.162;2024-01-30T06:04:53;102345.22;;;2.47;81.60
49835;BME280;35729;52.090;13.162;2024-01-30T06:07:22;102346.84;;;2.44;81.81
49835;BME280;35729;52.090;13.162;2024-01-30T06:09:50;102347.66;;;2.43;82.10
49835;BME280;35729;52.090;13.162;2024-01-30T06:12:18;102337.31;;;2.43;81.92
49835;BME280;35729;52.090;13.162;2024-01-30T06:14:47;102337.25;;;2.42;82.23
49835;BME280;35729;52.090;13.162;2024-01-30T06:17:15;102341.56;;;2.41;82.41
49835;BME280;35729;52.090;13.162;2024-01-30T06:19:44;102339.78;;;2.40;81.54
49835;BME280;35729;52.090;13.162;2024-01-30T06:22:15;102335.28;;;2.36;81.87
49835;BME280;35729;52.090;13.162;2024-01-30T06:24:44;102337.19;;;2.40;82.07
49835;BME280;35729;52.090;13.162;2024-01-30T06:27:14;102333.72;;;2.40;81.82
49835;BME280;35729;52.090;13.162;2024-01-30T06:29:43;102338.97;;;2.41;81.87
49835;BME280;35729;52.090;13.162;2024-01-30T06:32:11;102333.78;;;2.41;81.96
49835;BME280;35729;52.090;13.162;2024-01-30T06:34:41;102333.84;;;2.43;82.19
49835;BME280;35729;52.090;13.162;2024-01-30T06:37:09;102333.03;;;2.44;82.33
49835;BME280;35729;52.090;13.162;2024-01-30T06:39:40;102328.72;;;2.44;82.33
49835;BME280;35729;52.090;13.162;2024-01-30T06:42:16;102324.34;;;2.43;82.47
49835;BME280;35729;52.090;13.162;2024-01-30T06:44:51;102326.94;;;2.43;80.95
49835;BME280;35729;52.090;13.162;2024-01-30T06:47:19;102321.75;;;2.43;81.27
49835;BME280;35729;52.090;13.162;2024-01-30T06:49:48;102328.66;;;2.43;81.21
49835;BME280;35729;52.090;13.162;2024-01-30T06:52:16;102332.13;;;2.43;81.25
49835;BME280;35729;52.090;13.162;2024-01-30T06:54:47;102326.03;;;2.41;81.04
49835;BME280;35729;52.090;13.162;2024-01-30T06:57:16;102329.47;;;2.42;81.77
49835;BME280;35729;52.090;13.162;2024-01-30T06:59:44;102328.59;;;2.41;81.41
49835;BME280;35729;52.090;13.162;2024-01-30T07:02:12;102332.13;;;2.43;81.40
49835;BME280;35729;52.090;13.162;2024-01-30T07:04:41;102329.47;;;2.42;81.28
49835;BME280;35729;52.090;13.162;2024-01-30T07:07:09;102331.31;;;2.44;81.54
49835;BME280;35729;52.090;13.162;2024-01-30T07:09:40;102328.75;;;2.46;80.70
49835;BME280;35729;52.090;13.162;2024-01-30T07:12:11;102334.00;;;2.48;81.46
49835;BME280;35729;52.090;13.162;2024-01-30T07:14:40;102335.81;;;2.50;81.37
49835;BME280;35729;52.090;13.162;2024-01-30T07:17:08;102338.47;;;2.52;81.38
49835;BME280;35729;52.090;13.162;2024-01-30T07:19:37;102342.00;;;2.54;81.32
49835;BME280;35729;52.090;13.162;2024-01-30T07:22:05;102347.34;;;2.58;81.50
49835;BME280;35729;52.090;13.162;2024-01-30T07:24:34;102339.69;;;2.61;81.34
49835;BME280;35729;52.090;13.162;2024-01-30T07:27:03;102341.53;;;2.64;81.30
49835;BME280;35729;52.090;13.162;2024-01-30T07:29:34;102337.22;;;2.65;80.09
49835;BME280;35729;52.090;13.162;2024-01-30T07:32:03;102339.13;;;2.70;80.88
49835;BME280;35729;52.090;13.162;2024-01-30T07:34:31;102342.72;;;2.74;81.19
49835;BME280;35729;52.090;13.162;2024-01-30T07:37:00;102346.38;;;2.79;81.04
49835;BME280;35729;52.090;13.162;2024-01-30T07:39:28;102342.19;;;2.83;80.66
49835;BME280;35729;52.090;13.162;2024-01-30T07:41:57;102339.72;;;2.86;80.30
49835;BME280;35729;52.090;13.162;2024-01-30T07:44:25;102335.56;;;2.91;80.27
49835;BME280;35729;52.090;13.162;2024-01-30T07:46:56;102341.81;;;2.96;79.10
49835;BME280;35729;52.090;13.162;2024-01-30T07:49:25;102341.94;;;3.01;80.09
49835;BME280;35729;52.090;13.162;2024-01-30T07:51:53;102335.22;;;3.06;79.83
49835;BME280;35729;52.090;13.162;2024-01-30T07:54:22;102332.78;;;3.10;79.61
49835;BME280;35729;52.090;13.162;2024-01-30T07:56:51;102341.59;;;3.16;79.15
49835;BME280;35729;52.090;13.162;2024-01-30T07:59:20;102338.31;;;3.20;79.00
49835;BME280;35729;52.090;13.162;2024-01-30T08:02:05;102335.84;;;3.24;78.67
49835;BME280;35729;52.090;13.162;2024-01-30T08:04:34;102332.59;;;3.30;78.39
49835;BME280;35729;52.090;13.162;2024-01-30T08:07:02;102335.31;;;3.35;78.90
49835;BME280;35729;52.090;13.162;2024-01-30T08:09:31;102331.13;;;3.38;78.36
49835;BME280;35729;52.090;13.162;2024-01-30T08:11:59;102322.63;;;3.42;78.05
49835;BME280;35729;52.090;13.162;2024-01-30T08:14:28;102327.13;;;3.48;77.76
49835;BME280;35729;52.090;13.162;2024-01-30T08:16:56;102323.78;;;3.52;77.89
49835;BME280;35729;52.090;13.162;2024-01-30T08:19:27;102324.81;;;3.57;76.83
49835;BME280;35729;52.090;13.162;2024-01-30T08:21:56;102324.97;;;3.62;77.40
49835;BME280;35729;52.090;13.162;2024-01-30T08:24:24;102331.19;;;3.67;76.26
49835;BME280;35729;52.090;13.162;2024-01-30T08:26:53;102324.44;;;3.72;76.71
49835;BME280;35729;52.090;13.162;2024-01-30T08:29:21;102323.78;;;3.78;76.58
49835;BME280;35729;52.090;13.162;2024-01-30T08:31:50;102323.91;;;3.83;74.86
49835;BME280;35729;52.090;13.162;2024-01-30T08:34:19;102313.66;;;3.87;75.42
49835;BME280;35729;52.090;13.162;2024-01-30T08:36:50;102314.69;;;3.92;74.43
49835;BME280;35729;52.090;13.162;2024-01-30T08:39:18;102310.50;;;3.98;75.00
49835;BME280;35729;52.090;13.162;2024-01-30T08:41:47;102308.06;;;4.02;72.23
49835;BME280;35729;52.090;13.162;2024-01-30T08:44:15;102305.66;;;4.08;71.58
49835;BME280;35729;52.090;13.162;2024-01-30T08:46:44;102299.75;;;4.14;73.91
49835;BME280;35729;52.090;13.162;2024-01-30T08:49:16;102300.75;;;4.19;73.32
49835;BME280;35729;52.090;13.162;2024-01-30T08:51:44;102300.09;;;4.25;72.38
49835;BME280;35729;52.090;13.162;2024-01-30T08:54:15;102305.47;;;4.31;73.41
49835;BME280;35729;52.090;13.162;2024-01-30T08:56:44;102306.47;;;4.36;73.51
49835;BME280;35729;52.090;13.162;2024-01-30T08:59:12;102312.69;;;4.42;73.31
49835;BME280;35729;52.090;13.162;2024-01-30T09:01:41;102312.81;;;4.46;72.19
49835;BME280;35729;52.090;13.162;2024-01-30T09:04:09;102308.63;;;4.51;73.27
49835;BME280;35729;52.090;13.162;2024-01-30T09:06:38;102306.16;;;4.56;73.22
49835;BME280;35729;52.090;13.162;2024-01-30T09:09:06;102312.31;;;4.60;73.67
49835;BME280;35729;52.090;13.162;2024-01-30T09:11:37;102319.34;;;4.64;72.45
49835;BME280;35729;52.090;13.162;2024-01-30T09:14:06;102322.09;;;4.68;72.83
49835;BME280;35729;52.090;13.162;2024-01-30T09:16:34;102311.69;;;4.68;71.23
49835;BME280;35729;52.090;13.162;2024-01-30T09:19:03;102317.88;;;4.72;71.76
49835;BME280;35729;52.090;13.162;2024-01-30T09:21:32;102312.69;;;4.73;71.86
49835;BME280;35729;52.090;13.162;2024-01-30T09:24:02;102312.69;;;4.73;69.79
49835;BME280;35729;52.090;13.162;2024-01-30T09:26:31;102306.69;;;4.76;71.96
49835;BME280;35729;52.090;13.162;2024-01-30T09:29:02;102307.63;;;4.78;70.93
49835;BME280;35729;52.090;13.162;2024-01-30T09:31:30;102302.50;;;4.81;72.07
49835;BME280;35729;52.090;13.162;2024-01-30T09:33:59;102308.69;;;4.85;72.19
49835;BME280;35729;52.090;13.162;2024-01-30T09:36:27;102307.00;;;4.87;71.98
49835;BME280;35729;52.090;13.162;2024-01-30T09:38:56;102297.44;;;4.86;70.69
49835;BME280;35729;52.090;13.162;2024-01-30T09:41:24;102297.63;;;4.94;71.38
49835;BME280;35729;52.090;13.162;2024-01-30T09:43:54;102300.34;;;4.97;70.90
49835;BME280;35729;52.090;13.162;2024-01-30T09:46:28;102301.28;;;5.00;70.92
49835;BME280;35729;52.090;13.162;2024-01-30T09:48:58;102295.34;;;5.04;71.33
49835;BME280;35729;52.090;13.162;2024-01-30T09:51:27;102291.97;;;5.09;71.42
49835;BME280;35729;52.090;13.162;2024-01-30T09:53:57;102286.03;;;5.14;70.82
49835;BME280;35729;52.090;13.162;2024-01-30T09:56:26;102286.13;;;5.17;70.99
49835;BME280;35729;52.090;13.162;2024-01-30T09:58:54;102276.66;;;5.21;70.45
49835;BME280;35729;52.090;13.162;2024-01-30T10:01:23;102285.47;;;5.26;69.82
49835;BME280;35729;52.090;13.162;2024-01-30T10:03:55;102291.63;;;5.30;68.92
49835;BME280;35729;52.090;13.162;2024-01-30T10:06:25;102281.28;;;5.33;68.96
49835;BME280;35729;52.090;13.162;2024-01-30T10:08:53;102291.81;;;5.37;69.47
49835;BME280;35729;52.090;13.162;2024-01-30T10:11:21;102284.97;;;5.41;70.31
49835;BME280;35729;52.090;13.162;2024-01-30T10:13:50;102282.47;;;5.46;70.29
49835;BME280;35729;52.090;13.162;2024-01-30T10:16:18;102279.13;;;5.50;70.13
49835;BME280;35729;52.090;13.162;2024-01-30T10:18:47;102282.66;;;5.53;70.14
49835;BME280;35729;52.090;13.162;2024-01-30T10:21:18;102272.34;;;5.58;69.62
49835;BME280;35729;52.090;13.162;2024-01-30T10:23:46;102275.91;;;5.62;70.16
49835;BME280;35729;52.090;13.162;2024-01-30T10:26:16;102284.66;;;5.65;69.87
49835;BME280;35729;52.090;13.162;2024-01-30T10:28:45;102279.53;;;5.68;70.08
49835;BME280;35729;52.090;13.162;2024-01-30T10:31:16;102280.44;;;5.70;69.33
49835;BME280;35729;52.090;13.162;2024-01-30T10:33:45;102283.16;;;5.75;69.97
49835;BME280;35729;52.090;13.162;2024-01-30T10:36:14;102284.97;;;5.78;66.65
49835;BME280;35729;52.090;13.162;2024-01-30T10:38:46;102267.63;;;5.80;67.45
49835;BME280;35729;52.090;13.162;2024-01-30T10:41:17;102264.28;;;5.84;67.13
49835;BME280;35729;52.090;13.162;2024-01-30T10:43:58;102265.25;;;5.89;68.02
49835;BME280;35729;52.090;13.162;2024-01-30T10:46:30;102267.06;;;5.93;68.33
49835;BME280;35729;52.090;13.162;2024-01-30T10:49:00;102265.50;;;6.00;69.92
49835;BME280;35729;52.090;13.162;2024-01-30T10:51:29;102263.00;;;6.05;68.79
49835;BME280;35729;52.090;13.162;2024-01-30T10:54:03;102264.00;;;6.11;69.12
49835;BME280;35729;52.090;13.162;2024-01-30T10:56:33;102266.75;;;6.19;66.50
49835;BME280;35729;52.090;13.162;2024-01-30T10:59:02;102260.00;;;6.27;70.07
49835;BME280;35729;52.090;13.162;2024-01-30T11:01:31;102261.00;;;6.34;69.22
49835;BME280;35729;52.090;13.162;2024-01-30T11:03:59;102257.66;;;6.41;69.98
49835;BME280;35729;52.090;13.162;2024-01-30T11:06:28;102256.94;;;6.48;68.28
49835;BME280;35729;52.090;13.162;2024-01-30T11:09:06;102258.78;;;6.54;65.66
49835;BME280;35729;52.090;13.162;2024-01-30T11:11:51;102261.53;;;6.62;65.07
49835;BME280;35729;52.090;13.162;2024-01-30T11:14:26;102250.34;;;6.67;67.96
49835;BME280;35729;52.090;13.162;2024-01-30T11:16:57;102244.38;;;6.75;68.01
49835;BME280;35729;52.090;13.162;2024-01-30T11:19:26;102247.97;;;6.80;67.70
49835;BME280;35729;52.090;13.162;2024-01-30T11:21:55;102248.94;;;6.85;68.32
49835;BME280;35729;52.090;13.162;2024-01-30T11:24:27;102249.91;;;6.92;66.90
49835;BME280;35729;52.090;13.162;2024-01-30T11:26:56;102246.47;;;6.94;64.30
49835;BME280;35729;52.090;13.162;2024-01-30T11:29:27;102246.59;;;7.00;68.13
49835;BME280;35729;52.090;13.162;2024-01-30T11:31:57;102245.78;;;7.06;67.44
49835;BME280;35729;52.090;13.162;2024-01-30T11:34:25;102245.91;;;7.12;67.76
49835;BME280;35729;52.090;13.162;2024-01-30T11:36:56;102249.44;;;7.16;65.55
49835;BME280;35729;52.090;13.162;2024-01-30T11:39:30;102246.03;;;7.20;67.38
49835;BME280;35729;52.090;13.162;2024-01-30T11:41:59;102248.69;;;7.23;67.99
49835;BME280;35729;52.090;13.162;2024-01-30T11:44:28;102255.72;;;7.27;67.79
49835;BME280;35729;52.090;13.162;2024-01-30T11:46:57;102249.66;;;7.30;67.85
49835;BME280;35729;52.090;13.162;2024-01-30T11:49:25;102247.13;;;7.33;66.56
49835;BME280;35729;52.090;13.162;2024-01-30T11:51:54;102251.47;;;7.34;67.99
49835;BME280;35729;52.090;13.162;2024-01-30T11:54:22;102246.31;;;7.37;67.36
49835;BME280;35729;52.090;13.162;2024-01-30T11:56:53;102240.25;;;7.38;66.41
49835;BME280;35729;52.090;13.162;2024-01-30T11:59:22;102240.28;;;7.43;67.72
49835;BME280;35729;52.090;13.162;2024-01-30T12:01:52;102235.97;;;7.45;67.59
49835;BME280;35729;52.090;13.162;2024-01-30T12:04:20;102236.91;;;7.48;67.71
49835;BME280;35729;52.090;13.162;2024-01-30T12:06:51;102230.00;;;7.52;67.31
49835;BME280;35729;52.090;13.162;2024-01-30T12:09:20;102225.66;;;7.54;67.60
49835;BME280;35729;52.090;13.162;2024-01-30T12:11:49;102226.66;;;7.61;67.86
49835;BME280;35729;52.090;13.162;2024-01-30T12:14:22;102224.06;;;7.64;66.65
49835;BME280;35729;52.090;13.162;2024-01-30T12:16:51;102220.69;;;7.70;67.37
49835;BME280;35729;52.090;13.162;2024-01-30T12:19:22;102212.00;;;7.72;67.12
49835;BME280;35729;52.090;13.162;2024-01-30T12:21:54;102205.94;;;7.76;65.77
49835;BME280;35729;52.090;13.162;2024-01-30T12:24:24;102209.50;;;7.83;67.36
49835;BME280;35729;52.090;13.162;2024-01-30T12:26:56;102198.25;;;7.87;66.45
49835;BME280;35729;52.090;13.162;2024-01-30T12:29:32;102197.47;;;7.94;67.13
49835;BME280;35729;52.090;13.162;2024-01-30T12:32:00;102192.31;;;7.99;67.35
49835;BME280;35729;52.090;13.162;2024-01-30T12:34:28;102184.53;;;8.05;68.09
49835;BME280;35729;52.090;13.162;2024-01-30T12:37:04;102176.72;;;8.10;66.63
49835;BME280;35729;52.090;13.162;2024-01-30T12:39:34;102168.09;;;8.14;67.78
49835;BME280;35729;52.090;13.162;2024-01-30T12:42:10;102177.72;;;8.20;67.69
49835;BME280;35729;52.090;13.162;2024-01-30T12:44:41;102170.78;;;8.23;66.38
49835;BME280;35729;52.090;13.162;2024-01-30T12:47:10;102166.47;;;8.27;67.30
49835;BME280;35729;52.090;13.162;2024-01-30T12:49:38;102167.38;;;8.30;67.63
49835;BME280;35729;52.090;13.162;2024-01-30T12:52:06;102159.56;;;8.32;67.35
49835;BME280;35729;52.090;13.162;2024-01-30T12:54:35;102163.06;;;8.34;67.44
49835;BME280;35729;52.090;13.162;2024-01-30T12:57:04;102166.56;;;8.38;67.32
49835;BME280;35729;52.090;13.162;2024-01-30T12:59:33;102170.94;;;8.39;67.45
49835;BME280;35729;52.090;13.162;2024-01-30T13:02:04;102169.22;;;8.41;65.98